Stratton Mountain, Vermont
Current Conditions -  °F | °C
As of 1:54 AM on Sunday 26 Oct 2014 (Local Time) from KDDH Reporting Station
Overcast Overcast  
Wind Chill: 11°   Ceiling: 7500
Heat Index: 11°   Visibility: 9mi
Dew Point:   Wind: 7mph
Humidity: 83%   Direction: 210°SSW
Pressure: 29.5"   Gusts: NA
Location:  43.11°N, 72.91°W
Report Text: KDDH 260554Z AUTO 21006KT 9SM BKN075 BKN090 OVC110 11/08 A2950 RMK AO2 SLP989 60004 T01060078 10144 20100 56017
Loading
Personal Weather Stations






























Interactive Weather Map
Tropical Storm Tracking
New forecast layout! Learn more

10-Day Weather Forecast

Advertisements
Track Severe Weather on mobile